sensor_id;sensor_type;location;lat;lon;timestamp;temperature;humidity
71291;DHT22;59073;51.994;4.448;2022-10-26T00:02:21;12.37;87.64
71291;DHT22;59073;51.994;4.448;2022-10-26T00:04:46;12.33;87.77
71291;DHT22;59073;51.994;4.448;2022-10-26T00:07:11;12.37;87.61
71291;DHT22;59073;51.994;4.448;2022-10-26T00:09:37;12.37;87.53
71291;DHT22;59073;51.994;4.448;2022-10-26T00:12:02;12.30;87.50
71291;DHT22;59073;51.994;4.448;2022-10-26T00:14:28;12.43;87.47
71291;DHT22;59073;51.994;4.448;2022-10-26T00:16:54;12.34;87.57
71291;DHT22;59073;51.994;4.448;2022-10-26T00:19:19;12.39;87.33
71291;DHT22;59073;51.994;4.448;2022-10-26T00:21:45;12.34;87.35
71291;DHT22;59073;51.994;4.448;2022-10-26T00:24:11;12.34;87.26
71291;DHT22;59073;51.994;4.448;2022-10-26T00:26:37;12.28;87.65
71291;DHT22;59073;51.994;4.448;2022-10-26T00:29:03;12.25;87.89
71291;DHT22;59073;51.994;4.448;2022-10-26T00:31:29;12.26;87.77
71291;DHT22;59073;51.994;4.448;2022-10-26T00:33:55;12.29;87.79
71291;DHT22;59073;51.994;4.448;2022-10-26T00:36:22;12.23;87.69
71291;DHT22;59073;51.994;4.448;2022-10-26T00:38:55;12.30;87.69
71291;DHT22;59073;51.994;4.448;2022-10-26T00:41:25;12.33;87.51
71291;DHT22;59073;51.994;4.448;2022-10-26T00:43:52;12.40;87.17
71291;DHT22;59073;51.994;4.448;2022-10-26T00:46:25;12.46;86.84
71291;DHT22;59073;51.994;4.448;2022-10-26T00:52:31;12.49;86.63
71291;DHT22;59073;51.994;4.448;2022-10-26T00:55:22;12.50;86.56
71291;DHT22;59073;51.994;4.448;2022-10-26T00:58:26;12.41;86.76
71291;DHT22;59073;51.994;4.448;2022-10-26T01:08:12;12.33;87.13
71291;DHT22;59073;51.994;4.448;2022-10-26T01:14:35;12.34;87.24
71291;DHT22;59073;51.994;4.448;2022-10-26T01:17:56;12.33;87.17
71291;DHT22;59073;51.994;4.448;2022-10-26T01:27:28;12.29;87.14
71291;DHT22;59073;51.994;4.448;2022-10-26T01:38:32;12.40;87.18
71291;DHT22;59073;51.994;4.448;2022-10-26T01:41:13;12.49;86.73
71291;DHT22;59073;51.994;4.448;2022-10-26T01:43:50;12.50;86.25
71291;DHT22;59073;51.994;4.448;2022-10-26T01:46:20;12.54;86.15
71291;DHT22;59073;51.994;4.448;2022-10-26T01:48:52;12.54;86.36
71291;DHT22;59073;51.994;4.448;2022-10-26T01:51:21;12.47;86.70
71291;DHT22;59073;51.994;4.448;2022-10-26T01:53:46;12.37;86.99
71291;DHT22;59073;51.994;4.448;2022-10-26T01:56:18;12.39;86.86
71291;DHT22;59073;51.994;4.448;2022-10-26T02:02:10;12.36;87.03
71291;DHT22;59073;51.994;4.448;2022-10-26T02:07:49;12.47;86.52
71291;DHT22;59073;51.994;4.448;2022-10-26T02:10:37;12.53;86.20
71291;DHT22;59073;51.994;4.448;2022-10-26T02:13:15;12.51;86.18
71291;DHT22;59073;51.994;4.448;2022-10-26T02:16:57;12.50;86.13
71291;DHT22;59073;51.994;4.448;2022-10-26T02:19:02;12.43;86.49
71291;DHT22;59073;51.994;4.448;2022-10-26T02:21:42;12.49;86.18
71291;DHT22;59073;51.994;4.448;2022-10-26T02:24:12;12.46;86.23
71291;DHT22;59073;51.994;4.448;2022-10-26T02:26:40;12.36;86.80
71291;DHT22;59073;51.994;4.448;2022-10-26T02:29:12;12.26;87.11
71291;DHT22;59073;51.994;4.448;2022-10-26T02:31:43;12.25;87.31
71291;DHT22;59073;51.994;4.448;2022-10-26T02:34:13;12.15;87.48
71291;DHT22;59073;51.994;4.448;2022-10-26T02:36:44;12.18;87.62
71291;DHT22;59073;51.994;4.448;2022-10-26T02:39:15;12.13;87.63
71291;DHT22;59073;51.994;4.448;2022-10-26T02:41:44;12.23;87.39
71291;DHT22;59073;51.994;4.448;2022-10-26T02:44:34;12.36;86.90
71291;DHT22;59073;51.994;4.448;2022-10-26T02:47:01;12.30;87.10
71291;DHT22;59073;51.994;4.448;2022-10-26T02:49:27;12.25;87.39
71291;DHT22;59073;51.994;4.448;2022-10-26T02:52:14;12.32;87.13
71291;DHT22;59073;51.994;4.448;2022-10-26T02:54:53;12.28;87.34
71291;DHT22;59073;51.994;4.448;2022-10-26T02:59:59;12.20;87.52
71291;DHT22;59073;51.994;4.448;2022-10-26T03:02:26;12.15;87.84
71291;DHT22;59073;51.994;4.448;2022-10-26T03:04:54;12.13;87.87
71291;DHT22;59073;51.994;4.448;2022-10-26T03:07:23;12.16;87.80
71291;DHT22;59073;51.994;4.448;2022-10-26T03:09:49;12.10;88.03
71291;DHT22;59073;51.994;4.448;2022-10-26T03:12:14;12.10;88.15
71291;DHT22;59073;51.994;4.448;2022-10-26T03:14:40;12.16;87.86
71291;DHT22;59073;51.994;4.448;2022-10-26T03:17:06;12.23;87.65
71291;DHT22;59073;51.994;4.448;2022-10-26T03:19:31;12.32;87.44
71291;DHT22;59073;51.994;4.448;2022-10-26T03:21:57;12.36;87.30
71291;DHT22;59073;51.994;4.448;2022-10-26T03:24:22;12.37;87.15
71291;DHT22;59073;51.994;4.448;2022-10-26T03:26:47;12.41;87.09
71291;DHT22;59073;51.994;4.448;2022-10-26T03:29:13;12.40;87.17
71291;DHT22;59073;51.994;4.448;2022-10-26T03:31:38;12.40;87.19
71291;DHT22;59073;51.994;4.448;2022-10-26T03:34:04;12.43;87.30
71291;DHT22;59073;51.994;4.448;2022-10-26T03:36:29;12.50;87.08
71291;DHT22;59073;51.994;4.448;2022-10-26T03:38:54;12.44;87.22
71291;DHT22;59073;51.994;4.448;2022-10-26T03:41:23;12.43;87.22
71291;DHT22;59073;51.994;4.448;2022-10-26T03:43:48;12.40;87.39
71291;DHT22;59073;51.994;4.448;2022-10-26T03:46:13;12.41;87.37
71291;DHT22;59073;51.994;4.448;2022-10-26T03:48:39;12.46;87.30
71291;DHT22;59073;51.994;4.448;2022-10-26T03:51:04;12.59;86.66
71291;DHT22;59073;51.994;4.448;2022-10-26T03:53:30;12.68;86.57
71291;DHT22;59073;51.994;4.448;2022-10-26T03:55:55;12.70;86.38
71291;DHT22;59073;51.994;4.448;2022-10-26T03:58:21;12.74;86.21
71291;DHT22;59073;51.994;4.448;2022-10-26T04:00:46;12.74;86.40
71291;DHT22;59073;51.994;4.448;2022-10-26T04:03:12;12.80;86.16
71291;DHT22;59073;51.994;4.448;2022-10-26T04:05:37;12.76;86.27
71291;DHT22;59073;51.994;4.448;2022-10-26T04:08:03;12.74;86.36
71291;DHT22;59073;51.994;4.448;2022-10-26T04:10:29;12.81;86.32
71291;DHT22;59073;51.994;4.448;2022-10-26T04:12:55;12.83;86.28
71291;DHT22;59073;51.994;4.448;2022-10-26T04:15:21;12.87;86.09
71291;DHT22;59073;51.994;4.448;2022-10-26T04:17:47;12.85;86.19
71291;DHT22;59073;51.994;4.448;2022-10-26T04:20:13;12.88;86.34
71291;DHT22;59073;51.994;4.448;2022-10-26T04:22:39;12.85;86.53
71291;DHT22;59073;51.994;4.448;2022-10-26T04:25:05;12.90;86.37
71291;DHT22;59073;51.994;4.448;2022-10-26T04:27:32;12.88;86.29
71291;DHT22;59073;51.994;4.448;2022-10-26T04:29:58;12.91;86.25
71291;DHT22;59073;51.994;4.448;2022-10-26T04:32:23;12.87;86.55
71291;DHT22;59073;51.994;4.448;2022-10-26T04:34:49;12.88;86.47
71291;DHT22;59073;51.994;4.448;2022-10-26T04:37:14;12.95;86.54
71291;DHT22;59073;51.994;4.448;2022-10-26T04:39:39;12.98;86.48
71291;DHT22;59073;51.994;4.448;2022-10-26T04:42:05;13.05;86.22
71291;DHT22;59073;51.994;4.448;2022-10-26T04:44:31;13.12;85.86
71291;DHT22;59073;51.994;4.448;2022-10-26T04:46:56;13.14;86.13
71291;DHT22;59073;51.994;4.448;2022-10-26T04:49:22;13.12;85.92
71291;DHT22;59073;51.994;4.448;2022-10-26T04:51:47;13.14;85.93
71291;DHT22;59073;51.994;4.448;2022-10-26T04:54:13;13.19;85.95
71291;DHT22;59073;51.994;4.448;2022-10-26T04:56:39;13.31;85.51
71291;DHT22;59073;51.994;4.448;2022-10-26T04:59:04;13.22;85.83
71291;DHT22;59073;51.994;4.448;2022-10-26T05:01:30;13.32;85.66
71291;DHT22;59073;51.994;4.448;2022-10-26T05:03:55;13.36;85.28
71291;DHT22;59073;51.994;4.448;2022-10-26T05:06:21;13.34;85.70
71291;DHT22;59073;51.994;4.448;2022-10-26T05:08:47;13.31;85.66
71291;DHT22;59073;51.994;4.448;2022-10-26T05:11:12;13.29;85.63
71291;DHT22;59073;51.994;4.448;2022-10-26T05:13:38;13.34;85.66
71291;DHT22;59073;51.994;4.448;2022-10-26T05:16:03;13.26;85.66
71291;DHT22;59073;51.994;4.448;2022-10-26T05:18:29;13.46;85.14
71291;DHT22;59073;51.994;4.448;2022-10-26T05:20:54;13.52;84.97
71291;DHT22;59073;51.994;4.448;2022-10-26T05:23:21;13.49;85.05
71291;DHT22;59073;51.994;4.448;2022-10-26T05:25:47;13.66;84.38
71291;DHT22;59073;51.994;4.448;2022-10-26T05:28:14;13.58;84.55
71291;DHT22;59073;51.994;4.448;2022-10-26T05:30:41;13.60;84.58
71291;DHT22;59073;51.994;4.448;2022-10-26T05:33:09;13.62;84.38
71291;DHT22;59073;51.994;4.448;2022-10-26T05:35:36;13.62;84.46
71291;DHT22;59073;51.994;4.448;2022-10-26T05:38:10;13.73;83.94
71291;DHT22;59073;51.994;4.448;2022-10-26T05:40:36;13.79;83.74
71291;DHT22;59073;51.994;4.448;2022-10-26T05:43:02;13.73;83.94
71291;DHT22;59073;51.994;4.448;2022-10-26T05:45:28;13.74;83.63
71291;DHT22;59073;51.994;4.448;2022-10-26T05:47:54;13.84;83.48
71291;DHT22;59073;51.994;4.448;2022-10-26T05:50:19;13.76;83.63
71291;DHT22;59073;51.994;4.448;2022-10-26T05:52:46;13.80;83.47
71291;DHT22;59073;51.994;4.448;2022-10-26T05:55:14;13.77;83.53
71291;DHT22;59073;51.994;4.448;2022-10-26T05:57:41;13.79;83.72
71291;DHT22;59073;51.994;4.448;2022-10-26T06:05:23;13.46;84.68
71291;DHT22;59073;51.994;4.448;2022-10-26T06:07:50;13.49;84.71
71291;DHT22;59073;51.994;4.448;2022-10-26T06:10:15;13.53;84.52
71291;DHT22;59073;51.994;4.448;2022-10-26T06:12:41;13.56;84.67
71291;DHT22;59073;51.994;4.448;2022-10-26T06:15:10;13.52;84.83
71291;DHT22;59073;51.994;4.448;2022-10-26T06:20:29;13.50;84.60
71291;DHT22;59073;51.994;4.448;2022-10-26T06:26:01;13.45;84.94
71291;DHT22;59073;51.994;4.448;2022-10-26T06:31:13;13.46;84.69
71291;DHT22;59073;51.994;4.448;2022-10-26T06:33:39;13.55;84.51
71291;DHT22;59073;51.994;4.448;2022-10-26T06:36:14;13.59;84.34
71291;DHT22;59073;51.994;4.448;2022-10-26T06:38:44;13.56;84.45
71291;DHT22;59073;51.994;4.448;2022-10-26T06:41:12;13.63;84.05
71291;DHT22;59073;51.994;4.448;2022-10-26T06:43:43;13.73;84.00
71291;DHT22;59073;51.994;4.448;2022-10-26T06:46:24;13.84;83.27
71291;DHT22;59073;51.994;4.448;2022-10-26T06:49:22;13.83;83.33
71291;DHT22;59073;51.994;4.448;2022-10-26T06:57:16;14.20;81.99
71291;DHT22;59073;51.994;4.448;2022-10-26T06:59:47;14.14;82.40
71291;DHT22;59073;51.994;4.448;2022-10-26T07:02:13;14.06;82.78
71291;DHT22;59073;51.994;4.448;2022-10-26T07:04:40;14.03;83.05
71291;DHT22;59073;51.994;4.448;2022-10-26T07:07:08;14.11;82.89
71291;DHT22;59073;51.994;4.448;2022-10-26T07:09:33;14.28;82.45
71291;DHT22;59073;51.994;4.448;2022-10-26T07:11:59;14.49;81.89
71291;DHT22;59073;51.994;4.448;2022-10-26T07:14:24;14.78;81.15
71291;DHT22;59073;51.994;4.448;2022-10-26T07:16:50;14.98;80.72
71291;DHT22;59073;51.994;4.448;2022-10-26T07:19:15;15.06;80.08
71291;DHT22;59073;51.994;4.448;2022-10-26T07:21:40;15.20;79.91
71291;DHT22;59073;51.994;4.448;2022-10-26T07:27:28;15.60;78.95
71291;DHT22;59073;51.994;4.448;2022-10-26T07:44:06;16.43;76.40
71291;DHT22;59073;51.994;4.448;2022-10-26T07:46:32;16.60;76.03
71291;DHT22;59073;51.994;4.448;2022-10-26T07:49:21;16.93;75.46
71291;DHT22;59073;51.994;4.448;2022-10-26T07:55:02;17.28;74.25
71291;DHT22;59073;51.994;4.448;2022-10-26T07:57:30;17.38;74.36
71291;DHT22;59073;51.994;4.448;2022-10-26T07:59:56;17.55;73.95
71291;DHT22;59073;51.994;4.448;2022-10-26T08:02:23;17.55;73.55
71291;DHT22;59073;51.994;4.448;2022-10-26T08:04:48;17.56;72.85
71291;DHT22;59073;51.994;4.448;2022-10-26T08:07:14;17.63;73.25
71291;DHT22;59073;51.994;4.448;2022-10-26T08:09:39;17.56;73.41
71291;DHT22;59073;51.994;4.448;2022-10-26T08:12:04;17.68;73.51
71291;DHT22;59073;51.994;4.448;2022-10-26T08:14:30;17.62;73.42
71291;DHT22;59073;51.994;4.448;2022-10-26T08:16:58;17.73;73.38
71291;DHT22;59073;51.994;4.448;2022-10-26T08:19:26;17.80;73.05
71291;DHT22;59073;51.994;4.448;2022-10-26T08:21:52;17.80;73.81
71291;DHT22;59073;51.994;4.448;2022-10-26T08:24:17;17.90;73.04
71291;DHT22;59073;51.994;4.448;2022-10-26T08:26:42;17.97;73.13
71291;DHT22;59073;51.994;4.448;2022-10-26T08:29:08;18.09;73.53
71291;DHT22;59073;51.994;4.448;2022-10-26T08:31:33;18.24;72.43
71291;DHT22;59073;51.994;4.448;2022-10-26T08:33:59;18.23;72.52
71291;DHT22;59073;51.994;4.448;2022-10-26T08:36:26;18.34;72.41
71291;DHT22;59073;51.994;4.448;2022-10-26T08:38:52;18.50;72.65
71291;DHT22;59073;51.994;4.448;2022-10-26T08:43:58;18.82;71.43
71291;DHT22;59073;51.994;4.448;2022-10-26T08:46:35;18.96;71.10
71291;DHT22;59073;51.994;4.448;2022-10-26T08:49:28;18.94;71.68
71291;DHT22;59073;51.994;4.448;2022-10-26T08:52:00;19.12;71.92
71291;DHT22;59073;51.994;4.448;2022-10-26T08:54:42;19.06;72.11
71291;DHT22;59073;51.994;4.448;2022-10-26T08:57:35;18.82;71.50
71291;DHT22;59073;51.994;4.448;2022-10-26T09:00:02;18.55;72.63
71291;DHT22;59073;51.994;4.448;2022-10-26T09:02:29;18.61;73.25
71291;DHT22;59073;51.994;4.448;2022-10-26T09:04:57;18.95;73.27
71291;DHT22;59073;51.994;4.448;2022-10-26T09:07:38;19.16;72.39
71291;DHT22;59073;51.994;4.448;2022-10-26T09:13:07;19.06;73.10
71291;DHT22;59073;51.994;4.448;2022-10-26T09:18:46;19.02;72.71
71291;DHT22;59073;51.994;4.448;2022-10-26T09:21:30;19.06;73.74
71291;DHT22;59073;51.994;4.448;2022-10-26T09:24:21;19.20;73.36
71291;DHT22;59073;51.994;4.448;2022-10-26T09:26:54;19.39;73.56
71291;DHT22;59073;51.994;4.448;2022-10-26T09:29:25;19.37;73.05
71291;DHT22;59073;51.994;4.448;2022-10-26T09:31:54;19.56;72.90
71291;DHT22;59073;51.994;4.448;2022-10-26T09:34:30;19.57;72.75
71291;DHT22;59073;51.994;4.448;2022-10-26T09:36:57;19.70;72.35
71291;DHT22;59073;51.994;4.448;2022-10-26T09:39:28;19.77;73.01
71291;DHT22;59073;51.994;4.448;2022-10-26T09:42:16;19.71;72.91
71291;DHT22;59073;51.994;4.448;2022-10-26T09:44:55;19.46;72.97
71291;DHT22;59073;51.994;4.448;2022-10-26T09:47:37;19.34;73.95
71291;DHT22;59073;51.994;4.448;2022-10-26T09:50:16;19.16;74.32
71291;DHT22;59073;51.994;4.448;2022-10-26T09:52:42;19.37;74.73
71291;DHT22;59073;51.994;4.448;2022-10-26T09:55:12;19.40;74.26
71291;DHT22;59073;51.994;4.448;2022-10-26T09:57:39;19.33;74.37
71291;DHT22;59073;51.994;4.448;2022-10-26T10:00:11;19.22;74.54
71291;DHT22;59073;51.994;4.448;2022-10-26T10:02:39;19.22;74.47
71291;DHT22;59073;51.994;4.448;2022-10-26T10:05:31;19.26;75.15
71291;DHT22;59073;51.994;4.448;2022-10-26T10:08:25;19.20;74.71
71291;DHT22;59073;51.994;4.448;2022-10-26T10:13:30;18.99;76.12
71291;DHT22;59073;51.994;4.448;2022-10-26T10:16:12;18.94;76.28
71291;DHT22;59073;51.994;4.448;2022-10-26T10:18:40;18.81;76.10
71291;DHT22;59073;51.994;4.448;2022-10-26T10:21:08;18.62;76.61
71291;DHT22;59073;51.994;4.448;2022-10-26T10:23:46;18.61;77.19
71291;DHT22;59073;51.994;4.448;2022-10-26T10:26:11;18.58;77.56
71291;DHT22;59073;51.994;4.448;2022-10-26T10:28:39;18.81;77.49
71291;DHT22;59073;51.994;4.448;2022-10-26T10:31:21;18.94;76.46
71291;DHT22;59073;51.994;4.448;2022-10-26T10:33:50;18.96;75.98
71291;DHT22;59073;51.994;4.448;2022-10-26T10:36:23;19.24;76.25
71291;DHT22;59073;51.994;4.448;2022-10-26T10:38:52;19.36;75.05
71291;DHT22;59073;51.994;4.448;2022-10-26T10:41:33;19.54;75.70
71291;DHT22;59073;51.994;4.448;2022-10-26T10:44:27;19.67;75.38
71291;DHT22;59073;51.994;4.448;2022-10-26T10:47:02;19.78;75.30
71291;DHT22;59073;51.994;4.448;2022-10-26T10:49:30;19.92;74.39
71291;DHT22;59073;51.994;4.448;2022-10-26T10:51:56;20.04;74.11
71291;DHT22;59073;51.994;4.448;2022-10-26T10:54:34;19.95;74.23
71291;DHT22;59073;51.994;4.448;2022-10-26T10:57:27;20.25;73.47
71291;DHT22;59073;51.994;4.448;2022-10-26T11:00:08;20.33;73.05
71291;DHT22;59073;51.994;4.448;2022-10-26T11:07:54;20.24;73.29
71291;DHT22;59073;51.994;4.448;2022-10-26T11:10:26;20.08;73.00
71291;DHT22;59073;51.994;4.448;2022-10-26T11:13:00;20.38;73.87
71291;DHT22;59073;51.994;4.448;2022-10-26T11:15:33;20.46;73.33
71291;DHT22;59073;51.994;4.448;2022-10-26T11:18:11;20.59;74.09
71291;DHT22;59073;51.994;4.448;2022-10-26T11:20:48;20.49;72.67
71291;DHT22;59073;51.994;4.448;2022-10-26T11:23:31;20.41;73.32
71291;DHT22;59073;51.994;4.448;2022-10-26T11:26:11;20.41;73.36
71291;DHT22;59073;51.994;4.448;2022-10-26T12:42:40;20.66;70.89
71291;DHT22;59073;51.994;4.448;2022-10-26T12:45:22;20.59;72.13
71291;DHT22;59073;51.994;4.448;2022-10-26T12:50:54;20.71;72.22
71291;DHT22;59073;51.994;4.448;2022-10-26T12:53:42;20.65;70.53
71291;DHT22;59073;51.994;4.448;2022-10-26T12:56:16;20.48;71.15
71291;DHT22;59073;51.994;4.448;2022-10-26T13:09:13;20.48;71.98
71291;DHT22;59073;51.994;4.448;2022-10-26T13:11:46;20.51;71.43
71291;DHT22;59073;51.994;4.448;2022-10-26T13:14:35;20.56;70.84
71291;DHT22;59073;51.994;4.448;2022-10-26T13:17:18;20.55;71.47
71291;DHT22;59073;51.994;4.448;2022-10-26T13:19:48;20.56;71.66
71291;DHT22;59073;51.994;4.448;2022-10-26T13:22:20;20.53;71.53
71291;DHT22;59073;51.994;4.448;2022-10-26T13:25:03;20.33;70.92
71291;DHT22;59073;51.994;4.448;2022-10-26T13:33:06;20.36;71.87
71291;DHT22;59073;51.994;4.448;2022-10-26T13:35:32;20.15;71.12
71291;DHT22;59073;51.994;4.448;2022-10-26T14:13:06;19.90;72.68
71291;DHT22;59073;51.994;4.448;2022-10-26T14:16:11;19.90;73.08
71291;DHT22;59073;51.994;4.448;2022-10-26T14:19:47;19.87;72.98
71291;DHT22;59073;51.994;4.448;2022-10-26T14:49:48;19.81;73.13
71291;DHT22;59073;51.994;4.448;2022-10-26T15:20:30;20.04;72.53
71291;DHT22;59073;51.994;4.448;2022-10-26T15:23:20;19.90;73.10
71291;DHT22;59073;51.994;4.448;2022-10-26T15:26:12;19.83;73.44
71291;DHT22;59073;51.994;4.448;2022-10-26T15:36:22;19.71;73.17
71291;DHT22;59073;51.994;4.448;2022-10-26T15:46:03;19.70;74.12
71291;DHT22;59073;51.994;4.448;2022-10-26T15:52:25;19.70;74.40
71291;DHT22;59073;51.994;4.448;2022-10-26T15:58:52;19.56;74.97
71291;DHT22;59073;51.994;4.448;2022-10-26T16:02:10;19.50;75.14
71291;DHT22;59073;51.994;4.448;2022-10-26T16:05:10;19.47;74.87
71291;DHT22;59073;51.994;4.448;2022-10-26T16:11:24;19.30;75.51
71291;DHT22;59073;51.994;4.448;2022-10-26T16:13:52;19.11;76.14
71291;DHT22;59073;51.994;4.448;2022-10-26T16:19:55;19.01;76.28
71291;DHT22;59073;51.994;4.448;2022-10-26T16:25:49;18.85;76.30
71291;DHT22;59073;51.994;4.448;2022-10-26T16:38:46;18.58;76.82
71291;DHT22;59073;51.994;4.448;2022-10-26T16:41:44;18.62;76.75
71291;DHT22;59073;51.994;4.448;2022-10-26T16:52:01;18.50;76.52
71291;DHT22;59073;51.994;4.448;2022-10-26T16:55:08;18.41;76.79
71291;DHT22;59073;51.994;4.448;2022-10-26T17:05:06;18.36;76.98
71291;DHT22;59073;51.994;4.448;2022-10-26T17:07:40;18.16;77.42
71291;DHT22;59073;51.994;4.448;2022-10-26T17:13:21;18.12;77.35
71291;DHT22;59073;51.994;4.448;2022-10-26T17:16:09;18.12;77.33
71291;DHT22;59073;51.994;4.448;2022-10-26T17:19:29;18.18;77.10
71291;DHT22;59073;51.994;4.448;2022-10-26T17:22:06;18.16;77.26
71291;DHT22;59073;51.994;4.448;2022-10-26T17:24:31;18.27;76.92
71291;DHT22;59073;51.994;4.448;2022-10-26T17:27:02;18.41;76.71
71291;DHT22;59073;51.994;4.448;2022-10-26T17:29:31;18.50;76.30
71291;DHT22;59073;51.994;4.448;2022-10-26T17:35:38;18.60;75.91
71291;DHT22;59073;51.994;4.448;2022-10-26T18:11:15;17.76;78.31
71291;DHT22;59073;51.994;4.448;2022-10-26T18:18:24;17.75;78.50
71291;DHT22;59073;51.994;4.448;2022-10-26T18:24:46;17.78;78.23
71291;DHT22;59073;51.994;4.448;2022-10-26T18:27:30;17.80;78.21
71291;DHT22;59073;51.994;4.448;2022-10-26T18:33:32;17.59;78.79
71291;DHT22;59073;51.994;4.448;2022-10-26T18:36:33;17.59;79.12
71291;DHT22;59073;51.994;4.448;2022-10-26T18:39:06;17.59;79.08
71291;DHT22;59073;51.994;4.448;2022-10-26T18:42:00;17.66;78.72
71291;DHT22;59073;51.994;4.448;2022-10-26T18:44:48;17.82;78.25
71291;DHT22;59073;51.994;4.448;2022-10-26T18:47:31;17.83;77.87
71291;DHT22;59073;51.994;4.448;2022-10-26T18:50:23;17.85;77.76
71291;DHT22;59073;51.994;4.448;2022-10-26T18:53:32;17.80;77.68
71291;DHT22;59073;51.994;4.448;2022-10-26T18:56:24;17.76;78.02
71291;DHT22;59073;51.994;4.448;2022-10-26T18:59:27;17.68;78.01
71291;DHT22;59073;51.994;4.448;2022-10-26T19:02:04;17.62;77.79
71291;DHT22;59073;51.994;4.448;2022-10-26T19:04:37;17.56;77.86
71291;DHT22;59073;51.994;4.448;2022-10-26T19:07:35;17.53;78.06
71291;DHT22;59073;51.994;4.448;2022-10-26T19:18:17;17.36;77.98
71291;DHT22;59073;51.994;4.448;2022-10-26T19:27:21;17.24;77.94
71291;DHT22;59073;51.994;4.448;2022-10-26T19:30:21;17.22;78.14
71291;DHT22;59073;51.994;4.448;2022-10-26T19:39:59;17.32;78.25
71291;DHT22;59073;51.994;4.448;2022-10-26T19:43:17;17.20;78.05
71291;DHT22;59073;51.994;4.448;2022-10-26T19:50:00;16.83;78.71
71291;DHT22;59073;51.994;4.448;2022-10-26T20:17:21;17.42;80.40
71291;DHT22;59073;51.994;4.448;2022-10-26T20:31:32;17.56;78.54
71291;DHT22;59073;51.994;4.448;2022-10-26T22:50:07;18.41;79.21
71291;DHT22;59073;51.994;4.448;2022-10-26T23:03:09;18.43;78.30
71291;DHT22;59073;51.994;4.448;2022-10-26T23:21:28;17.68;80.73
71291;DHT22;59073;51.994;4.448;2022-10-26T23:24:31;17.68;80.77
